createdAt,value
2018-11-27T00:01:42.946Z,2.67
2018-11-27T00:06:47.482Z,2.97
2018-11-27T00:11:52.034Z,3.04
2018-11-27T00:16:56.648Z,3.16
2018-11-27T00:22:01.181Z,2.98
2018-11-27T00:27:05.758Z,2.94
2018-11-27T00:32:10.328Z,2.60
2018-11-27T00:37:14.911Z,2.50
2018-11-27T00:42:19.462Z,2.38
2018-11-27T00:47:24.157Z,2.69
2018-11-27T00:52:28.692Z,2.58
2018-11-27T00:57:33.251Z,3.10
2018-11-27T01:02:37.862Z,3.05
2018-11-27T01:07:42.410Z,2.91
2018-11-27T01:12:47.010Z,2.94
2018-11-27T01:18:10.591Z,2.52
2018-11-27T01:23:15.137Z,2.68
2018-11-27T01:28:19.664Z,3.04
2018-11-27T01:33:24.205Z,2.65
2018-11-27T01:38:28.788Z,2.55
2018-11-27T01:43:33.304Z,2.73
2018-11-27T01:48:38.107Z,2.69
2018-11-27T01:53:42.786Z,2.63
2018-11-27T01:58:47.313Z,2.78
2018-11-27T02:03:51.860Z,2.52
2018-11-27T02:08:56.402Z,2.46
2018-11-27T02:14:01.020Z,2.73
2018-11-27T02:19:05.792Z,2.47
2018-11-27T02:24:10.389Z,2.44
2018-11-27T02:29:14.960Z,2.28
2018-11-27T02:34:19.495Z,2.60
2018-11-27T02:39:24.061Z,2.49
2018-11-27T02:44:28.619Z,2.09
2018-11-27T02:49:35.541Z,2.38
2018-11-27T02:54:37.670Z,2.19
2018-11-27T02:59:42.278Z,2.67
2018-11-27T03:04:46.830Z,2.40
2018-11-27T03:09:51.403Z,2.52
2018-11-27T03:14:55.996Z,2.42
2018-11-27T03:20:00.510Z,2.23
2018-11-27T03:25:05.417Z,2.60
2018-11-27T03:30:29.031Z,2.14
2018-11-27T03:35:33.561Z,2.19
2018-11-27T03:40:56.857Z,2.55
2018-11-27T03:46:20.415Z,2.33
2018-11-27T03:51:25.019Z,2.17
2018-11-27T03:56:29.630Z,2.38
2018-11-27T04:01:34.222Z,2.16
2018-11-27T04:06:38.860Z,2.05
2018-11-27T04:11:43.453Z,2.16
2018-11-27T04:16:47.985Z,1.99
2018-11-27T04:21:52.576Z,2.21
2018-11-27T04:26:57.174Z,2.14
2018-11-27T04:32:01.715Z,1.91
2018-11-27T04:37:06.510Z,1.63
2018-11-27T04:42:29.812Z,1.92
2018-11-27T04:47:34.385Z,1.97
2018-11-27T04:52:38.964Z,2.06
2018-11-27T04:58:02.512Z,2.07
2018-11-27T05:03:07.527Z,2.13
2018-11-27T05:08:12.070Z,1.82
2018-11-27T05:13:16.630Z,1.73
2018-11-27T05:18:40.191Z,1.63
2018-11-27T05:24:03.877Z,1.56
2018-11-27T05:29:08.619Z,1.82
2018-11-27T05:44:33.001Z,1.36
2018-11-27T05:49:56.612Z,2.22
2018-11-27T05:55:01.084Z,1.87
2018-11-27T06:00:25.368Z,1.96
2018-11-27T06:10:53.570Z,1.43
2018-11-27T06:15:58.115Z,1.62
2018-11-27T06:21:02.669Z,1.27
2018-11-27T06:26:07.227Z,1.04
2018-11-27T06:31:11.828Z,1.20
2018-11-27T06:36:16.384Z,1.14
2018-11-27T06:41:21.002Z,0.86
2018-11-27T06:46:44.586Z,0.69
2018-11-27T06:51:49.116Z,0.87
2018-11-27T06:56:53.668Z,0.81
2018-11-27T07:01:58.295Z,0.59
2018-11-27T07:07:02.864Z,1.21
2018-11-27T07:12:07.597Z,1.06
2018-11-27T07:17:31.155Z,0.95
2018-11-27T07:22:35.698Z,1.05
2018-11-27T07:27:40.248Z,0.80
2018-11-27T07:32:44.782Z,0.65
2018-11-27T07:37:49.592Z,0.94
2018-11-27T07:42:58.275Z,0.67
2018-11-27T07:48:02.855Z,0.78
2018-11-27T07:53:07.863Z,0.65
2018-11-27T07:58:12.406Z,0.22
2018-11-27T08:03:16.988Z,0.80
2018-11-27T08:08:40.316Z,0.98
2018-11-27T08:13:44.977Z,0.58
2018-11-27T08:18:49.848Z,0.34
2018-11-27T08:24:13.242Z,0.40
2018-11-27T08:29:17.905Z,0.73
2018-11-27T08:34:22.707Z,0.70
2018-11-27T08:39:27.463Z,0.49
2018-11-27T08:44:32.049Z,0.18
2018-11-27T08:49:36.648Z,0.26
2018-11-27T08:54:41.288Z,0.00
2018-11-27T08:59:45.939Z,0.48
2018-11-27T09:04:50.503Z,0.19
2018-11-27T09:09:55.336Z,0.13
2018-11-27T09:14:59.934Z,0.30
2018-11-27T09:20:04.718Z,0.23
2018-11-27T09:25:11.136Z,0.67
2018-11-27T09:30:34.801Z,0.64
2018-11-27T09:35:58.339Z,0.28
2018-11-27T09:41:02.908Z,0.87
2018-11-27T09:46:07.945Z,0.40
2018-11-27T09:51:12.515Z,0.42
2018-11-27T09:56:17.115Z,0.26
2018-11-27T10:01:21.722Z,0.67
2018-11-27T10:06:26.369Z,0.47
2018-11-27T10:11:30.891Z,0.71
2018-11-27T10:16:35.555Z,1.14
2018-11-27T10:21:40.090Z,1.38
2018-11-27T10:26:44.690Z,0.78
2018-11-27T10:31:49.260Z,1.26
2018-11-27T10:36:53.828Z,1.63
2018-11-27T10:42:17.415Z,1.47
2018-11-27T10:47:22.032Z,1.46
2018-11-27T10:52:26.666Z,1.63
2018-11-27T10:57:31.134Z,1.65
2018-11-27T11:02:36.444Z,1.70
2018-11-27T11:07:41.060Z,1.76
2018-11-27T11:12:45.651Z,1.25
2018-11-27T11:17:50.232Z,1.43
2018-11-27T11:22:54.766Z,0.98
2018-11-27T11:28:00.139Z,1.50
2018-11-27T11:33:04.749Z,1.14
2018-11-27T11:38:09.521Z,1.49
2018-11-27T11:43:14.115Z,1.84
2018-11-27T11:48:18.657Z,1.84
2018-11-27T11:53:26.227Z,1.51
2018-11-27T11:58:49.738Z,1.52
2018-11-27T12:03:54.431Z,1.69
2018-11-27T12:08:59.016Z,1.34
2018-11-27T12:14:03.549Z,1.89
2018-11-27T12:19:08.100Z,1.66
2018-11-27T12:24:12.671Z,2.02
2018-11-27T12:29:17.266Z,2.10
2018-11-27T12:34:21.858Z,1.71
2018-11-27T12:39:26.479Z,1.75
2018-11-27T12:44:31.107Z,1.76
2018-11-27T12:49:35.732Z,1.36
2018-11-27T12:54:40.297Z,1.42
2018-11-27T13:00:04.206Z,1.37
2018-11-27T13:05:10.682Z,1.66
2018-11-27T13:10:16.456Z,1.63
2018-11-27T13:15:21.909Z,1.74
2018-11-27T13:20:45.433Z,1.49
2018-11-27T13:25:50.062Z,1.39
2018-11-27T13:31:13.774Z,1.73
2018-11-27T13:36:18.357Z,1.37
2018-11-27T13:41:22.939Z,1.58
2018-11-27T13:46:27.515Z,1.19
2018-11-27T13:51:32.115Z,1.53
2018-11-27T13:56:36.687Z,1.04
2018-11-27T14:01:41.216Z,1.19
2018-11-27T14:06:45.766Z,1.46
2018-11-27T14:11:50.284Z,1.21
2018-11-27T14:16:54.816Z,1.08
2018-11-27T14:21:59.371Z,1.46
2018-11-27T14:27:04.168Z,0.98
2018-11-27T14:32:08.802Z,0.89
2018-11-27T14:37:13.408Z,0.87
2018-11-27T14:42:17.941Z,1.00
2018-11-27T14:47:22.625Z,1.00
2018-11-27T14:52:27.225Z,1.00
2018-11-27T14:57:31.784Z,0.93
2018-11-27T15:02:36.501Z,1.23
2018-11-27T15:07:41.355Z,0.64
2018-11-27T15:12:45.848Z,0.77
2018-11-27T15:17:50.464Z,0.64
2018-11-27T15:22:55.057Z,0.86
2018-11-27T15:27:59.629Z,0.44
2018-11-27T15:33:04.361Z,0.77
2018-11-27T15:38:09.122Z,0.59
2018-11-27T15:43:13.749Z,0.59
2018-11-27T15:48:18.455Z,0.43
2018-11-27T15:53:22.920Z,0.59
2018-11-27T15:58:27.550Z,0.76
2018-11-27T16:03:32.225Z,0.52
2018-11-27T16:08:36.756Z,0.62
2018-11-27T16:13:41.296Z,0.68
2018-11-27T16:19:04.850Z,0.75
2018-11-27T16:24:09.427Z,0.75
2018-11-27T16:29:14.018Z,0.56
2018-11-27T16:34:18.580Z,0.66
2018-11-27T16:39:23.117Z,0.42
2018-11-27T16:44:27.680Z,0.61
2018-11-27T16:49:50.881Z,0.59
2018-11-27T16:54:55.401Z,0.50
2018-11-27T16:59:59.952Z,0.60
2018-11-27T17:05:04.568Z,0.56
2018-11-27T17:10:28.149Z,0.48
2018-11-27T17:15:32.685Z,0.69
2018-11-27T17:20:39.002Z,0.40
2018-11-27T17:26:04.113Z,0.59
2018-11-27T17:31:26.283Z,0.50
2018-11-27T17:36:30.903Z,0.50
2018-11-27T17:41:35.585Z,0.41
2018-11-27T17:46:59.451Z,0.62
2018-11-27T17:52:04.130Z,0.37
2018-11-27T17:57:27.676Z,0.41
2018-11-27T18:02:32.281Z,0.02
2018-11-27T18:07:37.035Z,0.49
2018-11-27T18:13:01.071Z,0.40
2018-11-27T18:18:05.690Z,0.45
2018-11-27T18:23:10.357Z,0.53
2018-11-27T18:28:15.025Z,0.21
2018-11-27T18:33:19.553Z,0.34
2018-11-27T18:38:24.140Z,0.32
2018-11-27T18:43:28.709Z,-0.09
2018-11-27T18:48:33.297Z,0.23
2018-11-27T18:53:37.963Z,0.16
2018-11-27T18:59:01.602Z,-0.10
2018-11-27T19:04:06.398Z,-0.18
2018-11-27T19:09:11.399Z,-0.13
2018-11-27T19:14:15.974Z,-0.09
2018-11-27T19:19:20.534Z,0.19
2018-11-27T19:24:25.053Z,0.15
2018-11-27T19:29:29.647Z,0.01
2018-11-27T19:34:53.226Z,0.07
2018-11-27T19:39:58.018Z,0.04
2018-11-27T19:45:02.568Z,-0.37
2018-11-27T19:50:26.193Z,-0.16
2018-11-27T19:55:30.748Z,-0.16
2018-11-27T20:00:54.316Z,-0.19
2018-11-27T20:05:58.881Z,-0.28
2018-11-27T20:11:03.480Z,-0.34
2018-11-27T20:16:08.460Z,-0.01
2018-11-27T20:21:32.116Z,-0.51
2018-11-27T20:26:36.850Z,-0.14
2018-11-27T20:32:00.425Z,-0.23
2018-11-27T20:37:12.373Z,-0.65
2018-11-27T20:42:17.092Z,-0.93
2018-11-27T20:47:21.688Z,-0.40
2018-11-27T20:52:26.307Z,-0.56
2018-11-27T20:57:31.421Z,-0.53
2018-11-27T21:02:36.138Z,-0.57
2018-11-27T21:07:59.552Z,-0.77
2018-11-27T21:13:04.196Z,-0.83
2018-11-27T21:18:09.432Z,-0.80
2018-11-27T21:23:13.988Z,-0.65
2018-11-27T21:28:19.747Z,-0.62
2018-11-27T21:33:43.225Z,-0.54
2018-11-27T21:38:47.803Z,-0.68
2018-11-27T21:43:54.509Z,-0.61
2018-11-27T21:49:18.074Z,-0.76
2018-11-27T21:54:22.850Z,-0.81
2018-11-27T21:59:46.448Z,-0.80
2018-11-27T22:05:10.042Z,-0.82
2018-11-27T22:10:19.058Z,-0.91
2018-11-27T22:15:36.821Z,-0.88
2018-11-27T22:20:41.411Z,-1.14
2018-11-27T22:25:46.029Z,-1.30
2018-11-27T22:30:50.765Z,-1.09
2018-11-27T22:35:55.356Z,-1.13
2018-11-27T22:40:59.909Z,-1.14
2018-11-27T22:46:04.480Z,-1.20
2018-11-27T22:51:28.063Z,-1.24
2018-11-27T22:56:51.620Z,-1.09
2018-11-27T23:01:56.325Z,-1.36
2018-11-27T23:07:00.827Z,-1.27
2018-11-27T23:12:05.541Z,-1.67
2018-11-27T23:17:10.117Z,-1.39
2018-11-27T23:22:14.665Z,-1.43
2018-11-27T23:27:19.254Z,-1.43
2018-11-27T23:32:23.811Z,-1.60
2018-11-27T23:37:28.357Z,-1.58
2018-11-27T23:42:32.982Z,-1.52
2018-11-27T23:47:37.612Z,-1.48
2018-11-27T23:53:01.064Z,-1.42
2018-11-27T23:58:24.602Z,-1.61
